createdAt,value
2022-12-22T00:04:48.452Z,3.29
2022-12-22T00:15:19.435Z,3.31
2022-12-22T00:25:50.508Z,3.33
2022-12-22T00:36:29.468Z,3.40
2022-12-22T00:47:02.497Z,3.37
2022-12-22T00:57:45.503Z,3.36
2022-12-22T01:08:16.507Z,3.24
2022-12-22T01:18:47.512Z,3.23
2022-12-22T01:29:18.488Z,3.18
2022-12-22T01:39:49.520Z,3.25
2022-12-22T01:50:20.509Z,3.41
2022-12-22T02:00:51.534Z,3.32
2022-12-22T02:11:41.503Z,3.48
2022-12-22T02:22:23.556Z,3.48
2022-12-22T02:33:03.804Z,3.47
2022-12-22T02:43:55.559Z,3.54
2022-12-22T02:54:27.584Z,3.47
2022-12-22T03:04:58.573Z,3.57
2022-12-22T03:15:29.553Z,3.58
2022-12-22T03:25:59.566Z,3.51
2022-12-22T03:36:13.575Z,3.51
2022-12-22T03:46:38.645Z,3.47
2022-12-22T03:56:51.566Z,3.39
2022-12-22T04:07:04.613Z,3.41
2022-12-22T04:17:17.561Z,3.45
2022-12-22T04:27:30.624Z,3.52
2022-12-22T04:37:49.621Z,3.60
2022-12-22T04:48:02.606Z,3.68
2022-12-22T04:58:15.687Z,3.74
2022-12-22T05:08:28.637Z,3.76
2022-12-22T05:18:41.665Z,3.91
2022-12-22T05:28:55.633Z,4.05
2022-12-22T05:39:08.651Z,4.04
2022-12-22T05:49:21.644Z,4.10
2022-12-22T05:59:34.672Z,4.05
2022-12-22T06:09:47.699Z,3.89
2022-12-22T06:20:00.692Z,3.87
2022-12-22T06:30:14.675Z,3.87
2022-12-22T06:40:27.676Z,3.78
2022-12-22T06:50:40.697Z,3.80
2022-12-22T07:00:55.689Z,3.85
2022-12-22T07:11:08.719Z,3.86
2022-12-22T07:21:22.723Z,3.93
2022-12-22T07:31:35.741Z,3.87
2022-12-22T07:42:06.729Z,4.11
2022-12-22T07:52:19.702Z,4.15
2022-12-22T08:02:38.829Z,5.26
2022-12-22T08:12:50.756Z,6.08
2022-12-22T08:23:11.744Z,6.83
2022-12-22T08:33:24.739Z,6.72
2022-12-22T08:43:39.758Z,7.15
2022-12-22T08:54:08.141Z,7.68
2022-12-22T09:04:21.783Z,7.01
2022-12-22T09:14:35.764Z,7.49
2022-12-22T09:24:48.818Z,7.10
2022-12-22T09:35:01.803Z,8.84
2022-12-22T09:45:27.827Z,9.36
2022-12-22T09:55:46.810Z,8.90
2022-12-22T10:06:08.789Z,9.81
2022-12-22T10:16:31.832Z,9.88
2022-12-22T10:26:44.782Z,9.39
2022-12-22T10:36:59.850Z,8.73
2022-12-22T10:47:23.818Z,9.03
2022-12-22T10:57:37.868Z,9.55
2022-12-22T11:07:53.824Z,11.14
2022-12-22T11:18:15.889Z,10.47
2022-12-22T11:28:55.885Z,9.08
2022-12-22T11:39:28.836Z,9.54
2022-12-22T11:49:53.888Z,8.92
2022-12-22T12:00:17.864Z,8.55
2022-12-22T12:10:40.885Z,8.56
2022-12-22T12:21:20.866Z,8.80
2022-12-22T12:31:39.941Z,8.15
2022-12-22T12:42:12.879Z,7.52
2022-12-22T12:52:25.941Z,7.11
2022-12-22T13:02:40.990Z,6.60
2022-12-22T13:13:01.944Z,6.33
2022-12-22T13:23:22.906Z,6.20
2022-12-22T13:33:37.953Z,6.24
2022-12-22T13:43:51.907Z,6.26
2022-12-22T13:54:10.361Z,6.20
2022-12-22T14:04:25.037Z,6.04
2022-12-22T14:14:48.968Z,5.65
2022-12-22T14:25:05.945Z,5.32
2022-12-22T14:35:30.996Z,5.11
2022-12-22T14:45:43.983Z,4.95
2022-12-22T14:55:57.992Z,4.80
2022-12-22T15:06:35.986Z,4.56
2022-12-22T15:16:50.398Z,4.55
2022-12-22T15:27:10.996Z,4.77
2022-12-22T15:37:31.081Z,4.69
2022-12-22T15:47:43.983Z,4.51
2022-12-22T15:58:03.046Z,4.78
2022-12-22T16:08:25.040Z,5.06
2022-12-22T16:18:38.041Z,4.88
2022-12-22T16:28:51.020Z,4.99
2022-12-22T16:39:10.103Z,4.99
2022-12-22T16:49:27.105Z,4.97
2022-12-22T16:59:40.067Z,4.99
2022-12-22T17:10:02.044Z,5.19
2022-12-22T17:20:15.095Z,5.25
2022-12-22T17:30:33.049Z,5.33
2022-12-22T17:40:53.120Z,5.18
2022-12-22T17:51:06.119Z,4.98
2022-12-22T18:01:28.175Z,4.97
2022-12-22T18:11:45.822Z,4.92
2022-12-22T18:21:59.089Z,5.06
2022-12-22T18:32:12.167Z,5.16
2022-12-22T18:42:29.099Z,5.13
2022-12-22T18:52:42.145Z,5.05
2022-12-22T19:02:56.225Z,5.13
2022-12-22T19:13:11.137Z,5.25
2022-12-22T19:23:28.104Z,5.25
2022-12-22T19:33:49.163Z,5.26
2022-12-22T19:44:02.167Z,5.35
2022-12-22T19:54:15.173Z,5.21
2022-12-22T20:04:28.160Z,5.22
2022-12-22T20:14:42.179Z,5.27
2022-12-22T20:24:56.184Z,5.28
2022-12-22T20:35:08.176Z,5.24
2022-12-22T20:45:21.164Z,5.15
2022-12-22T20:55:36.226Z,5.05
2022-12-22T21:05:49.182Z,4.96
2022-12-22T21:16:02.222Z,5.04
2022-12-22T21:26:44.183Z,5.04
2022-12-22T21:37:07.227Z,5.15
2022-12-22T21:47:21.289Z,5.20
2022-12-22T21:57:36.248Z,5.35
2022-12-22T22:07:49.232Z,5.46
2022-12-22T22:18:06.875Z,5.51
2022-12-22T22:28:20.257Z,5.44
2022-12-22T22:38:40.245Z,5.48
2022-12-22T22:48:55.244Z,5.45
2022-12-22T22:59:08.309Z,5.37
2022-12-22T23:09:21.277Z,5.28
2022-12-22T23:19:34.304Z,5.16
2022-12-22T23:29:47.298Z,4.95
2022-12-22T23:50:39.312Z,4.79
